createdAt,value
2019-03-27T00:00:52.004Z,5.15
2019-03-27T00:03:23.810Z,5.14
2019-03-27T00:05:55.099Z,5.06
2019-03-27T00:08:26.411Z,5.22
2019-03-27T00:10:57.751Z,5.31
2019-03-27T00:13:29.046Z,5.19
2019-03-27T00:16:00.429Z,5.05
2019-03-27T00:18:31.728Z,4.99
2019-03-27T00:21:02.971Z,5.08
2019-03-27T00:23:34.457Z,5.14
2019-03-27T00:26:05.839Z,5.09
2019-03-27T00:28:37.208Z,5.23
2019-03-27T00:31:11.635Z,5.05
2019-03-27T00:33:41.438Z,4.93
2019-03-27T00:36:12.779Z,4.86
2019-03-27T00:38:44.181Z,4.79
2019-03-27T00:41:15.413Z,4.70
2019-03-27T00:43:46.769Z,4.61
2019-03-27T00:46:18.072Z,4.54
2019-03-27T00:48:49.431Z,4.54
2019-03-27T00:51:20.676Z,4.66
2019-03-27T00:53:51.989Z,4.73
2019-03-27T00:56:23.292Z,4.92
2019-03-27T00:58:54.748Z,4.88
2019-03-27T01:01:26.120Z,4.75
2019-03-27T01:03:57.364Z,4.75
2019-03-27T01:06:28.728Z,4.67
2019-03-27T01:09:00.052Z,4.60
2019-03-27T01:11:31.383Z,4.56
2019-03-27T01:14:02.625Z,4.56
2019-03-27T01:16:33.910Z,4.44
2019-03-27T01:19:05.286Z,4.38
2019-03-27T01:21:36.668Z,4.41
2019-03-27T01:24:09.097Z,4.52
2019-03-27T01:26:40.421Z,4.58
2019-03-27T01:29:11.730Z,4.45
2019-03-27T01:31:43.043Z,4.29
2019-03-27T01:34:14.286Z,4.24
2019-03-27T01:36:45.573Z,4.25
2019-03-27T01:39:16.813Z,4.27
2019-03-27T01:41:48.127Z,4.26
2019-03-27T01:44:19.372Z,4.28
2019-03-27T01:46:50.662Z,4.39
2019-03-27T01:49:21.955Z,4.49
2019-03-27T01:51:53.422Z,4.43
2019-03-27T01:54:24.662Z,4.41
2019-03-27T01:56:56.189Z,4.46
2019-03-27T01:59:27.436Z,4.59
2019-03-27T02:01:58.861Z,4.63
2019-03-27T02:04:30.143Z,4.49
2019-03-27T02:07:01.641Z,4.41
2019-03-27T02:09:33.084Z,4.54
2019-03-27T02:12:04.744Z,4.54
2019-03-27T02:14:36.193Z,4.63
2019-03-27T02:17:07.617Z,4.61
2019-03-27T02:19:38.936Z,4.61
2019-03-27T02:22:12.524Z,4.49
2019-03-27T02:24:43.958Z,4.74
2019-03-27T02:27:15.557Z,4.63
2019-03-27T02:29:46.864Z,4.62
2019-03-27T02:32:20.660Z,4.57
2019-03-27T02:34:51.049Z,4.45
2019-03-27T02:37:22.414Z,4.47
2019-03-27T02:39:53.758Z,4.46
2019-03-27T02:42:25.045Z,4.36
2019-03-27T02:44:56.421Z,4.38
2019-03-27T02:47:27.658Z,4.40
2019-03-27T02:49:58.891Z,4.34
2019-03-27T02:52:30.304Z,4.32
2019-03-27T02:55:01.549Z,4.26
2019-03-27T02:57:32.844Z,4.20
2019-03-27T03:00:06.070Z,4.16
2019-03-27T03:02:37.450Z,4.18
2019-03-27T03:05:11.295Z,4.23
2019-03-27T03:07:43.175Z,4.29
2019-03-27T03:10:16.203Z,4.21
2019-03-27T03:12:47.520Z,4.24
2019-03-27T03:15:23.144Z,4.22
2019-03-27T03:17:54.410Z,4.25
2019-03-27T03:20:26.877Z,4.23
2019-03-27T03:22:58.197Z,4.25
2019-03-27T03:25:29.617Z,4.22
2019-03-27T03:28:00.844Z,4.20
2019-03-27T03:30:32.280Z,4.26
2019-03-27T03:33:03.586Z,4.22
2019-03-27T03:35:34.973Z,4.18
2019-03-27T03:38:07.283Z,4.17
2019-03-27T03:40:38.649Z,4.25
2019-03-27T03:43:11.901Z,4.38
2019-03-27T03:45:43.212Z,4.29
2019-03-27T03:48:14.628Z,4.23
2019-03-27T03:50:55.155Z,4.22
2019-03-27T03:53:27.251Z,4.20
2019-03-27T03:56:00.311Z,4.18
2019-03-27T03:58:34.065Z,4.13
2019-03-27T04:01:05.440Z,4.09
2019-03-27T04:03:37.855Z,4.07
2019-03-27T04:06:09.160Z,4.07
2019-03-27T04:08:40.493Z,4.07
2019-03-27T04:11:11.869Z,4.10
2019-03-27T04:13:43.137Z,4.11
2019-03-27T04:16:14.433Z,4.10
2019-03-27T04:18:45.790Z,4.08
2019-03-27T04:21:17.015Z,4.06
2019-03-27T04:23:48.446Z,4.08
2019-03-27T04:26:20.822Z,4.18
2019-03-27T04:28:52.158Z,4.20
2019-03-27T04:31:23.396Z,4.16
2019-03-27T04:33:54.694Z,4.20
2019-03-27T04:36:25.925Z,4.14
2019-03-27T04:38:57.617Z,4.11
2019-03-27T04:41:28.914Z,4.05
2019-03-27T04:44:00.192Z,4.00
2019-03-27T04:46:31.439Z,3.98
2019-03-27T04:49:07.354Z,4.13
2019-03-27T04:51:35.699Z,4.10
2019-03-27T04:54:12.595Z,4.05
2019-03-27T04:56:43.958Z,4.00
2019-03-27T04:59:15.579Z,3.98
2019-03-27T05:01:46.810Z,3.94
2019-03-27T05:04:18.332Z,3.94
2019-03-27T05:06:49.698Z,3.97
2019-03-27T05:09:21.329Z,4.07
2019-03-27T05:11:52.687Z,4.09
2019-03-27T05:14:24.102Z,4.17
2019-03-27T05:16:55.341Z,4.17
2019-03-27T05:19:26.631Z,4.18
2019-03-27T05:21:57.980Z,4.17
2019-03-27T05:24:29.283Z,4.12
2019-03-27T05:27:00.541Z,4.12
2019-03-27T05:29:31.841Z,4.12
2019-03-27T05:32:03.083Z,4.12
2019-03-27T05:34:34.468Z,4.16
2019-03-27T05:37:05.712Z,4.16
2019-03-27T05:39:37.018Z,4.15
2019-03-27T05:42:08.325Z,4.14
2019-03-27T05:44:39.715Z,4.18
2019-03-27T05:47:11.094Z,4.20
2019-03-27T05:49:42.383Z,4.24
2019-03-27T05:52:13.603Z,4.28
2019-03-27T05:54:44.991Z,4.33
2019-03-27T05:57:16.231Z,4.36
2019-03-27T05:59:47.579Z,4.39
2019-03-27T06:02:18.912Z,4.43
2019-03-27T06:04:53.884Z,4.46
2019-03-27T06:07:25.976Z,4.49
2019-03-27T06:09:57.749Z,4.49
2019-03-27T06:12:32.515Z,4.47
2019-03-27T06:15:06.881Z,4.47
2019-03-27T06:17:38.192Z,4.47
2019-03-27T06:20:09.706Z,4.46
2019-03-27T06:22:40.939Z,4.49
2019-03-27T06:25:12.370Z,4.52
2019-03-27T06:27:43.621Z,4.54
2019-03-27T06:30:16.573Z,4.56
2019-03-27T06:32:47.864Z,4.61
2019-03-27T06:35:20.229Z,4.65
2019-03-27T06:37:51.770Z,4.70
2019-03-27T06:40:23.460Z,4.74
2019-03-27T06:42:54.786Z,4.81
2019-03-27T06:45:26.139Z,4.87
2019-03-27T06:47:57.519Z,4.93
2019-03-27T06:50:28.871Z,4.98
2019-03-27T06:53:00.166Z,5.02
2019-03-27T06:55:32.657Z,5.06
2019-03-27T06:58:03.952Z,5.06
2019-03-27T07:00:37.045Z,5.15
2019-03-27T07:03:09.047Z,5.22
2019-03-27T07:05:41.194Z,5.35
2019-03-27T07:08:12.483Z,5.43
2019-03-27T07:10:43.817Z,5.53
2019-03-27T07:13:15.141Z,5.60
2019-03-27T07:15:46.427Z,5.67
2019-03-27T07:18:17.729Z,5.79
2019-03-27T07:20:49.081Z,5.89
2019-03-27T07:23:20.387Z,5.94
2019-03-27T07:25:51.843Z,6.03
2019-03-27T07:28:23.215Z,6.12
2019-03-27T07:30:54.496Z,6.24
2019-03-27T07:33:25.768Z,6.31
2019-03-27T07:35:57.028Z,6.41
2019-03-27T07:38:28.323Z,6.50
2019-03-27T07:41:00.699Z,6.59
2019-03-27T07:43:32.011Z,6.70
2019-03-27T07:46:03.352Z,6.85
2019-03-27T07:48:34.584Z,6.91
2019-03-27T07:51:05.953Z,6.98
2019-03-27T07:53:37.255Z,7.10
2019-03-27T07:56:08.724Z,7.22
2019-03-27T07:58:40.090Z,7.29
2019-03-27T08:01:11.393Z,7.36
2019-03-27T08:03:42.643Z,7.46
2019-03-27T08:06:14.047Z,7.53
2019-03-27T08:08:45.279Z,7.66
2019-03-27T08:11:16.582Z,7.74
2019-03-27T08:13:47.842Z,7.86
2019-03-27T08:16:19.166Z,7.93
2019-03-27T08:18:50.439Z,8.05
2019-03-27T08:21:21.761Z,8.12
2019-03-27T08:23:54.681Z,8.30
2019-03-27T08:26:26.112Z,8.41
2019-03-27T08:28:57.339Z,8.42
2019-03-27T08:31:28.700Z,8.45
2019-03-27T08:33:59.969Z,8.51
2019-03-27T08:36:31.266Z,8.62
2019-03-27T08:39:02.497Z,8.71
2019-03-27T08:41:35.368Z,8.77
2019-03-27T08:44:06.740Z,8.81
2019-03-27T08:46:39.717Z,8.88
2019-03-27T08:49:21.338Z,8.93
2019-03-27T08:51:44.180Z,8.98
2019-03-27T08:54:15.541Z,9.11
2019-03-27T08:56:46.843Z,9.18
2019-03-27T08:59:18.072Z,9.24
2019-03-27T09:01:49.380Z,9.28
2019-03-27T09:04:20.766Z,9.40
2019-03-27T09:06:53.125Z,9.57
2019-03-27T09:09:24.424Z,9.70
2019-03-27T09:11:55.928Z,9.79
2019-03-27T09:14:27.205Z,9.82
2019-03-27T09:16:58.623Z,9.88
2019-03-27T09:19:35.461Z,9.98
2019-03-27T09:22:03.045Z,10.10
2019-03-27T09:24:34.280Z,10.13
2019-03-27T09:27:05.727Z,10.25
2019-03-27T09:29:36.967Z,10.35
2019-03-27T09:32:08.258Z,10.40
2019-03-27T09:34:39.573Z,10.53
2019-03-27T09:37:10.971Z,10.42
2019-03-27T09:39:42.359Z,10.66
2019-03-27T09:42:13.824Z,10.87
2019-03-27T09:44:46.213Z,11.11
2019-03-27T09:47:17.511Z,11.24
2019-03-27T09:49:50.070Z,11.39
2019-03-27T09:52:21.558Z,11.49
2019-03-27T09:54:52.809Z,11.60
2019-03-27T09:57:24.144Z,11.61
2019-03-27T09:59:55.396Z,11.68
2019-03-27T10:02:26.688Z,11.77
2019-03-27T10:04:58.010Z,11.88
2019-03-27T10:07:30.180Z,11.91
2019-03-27T10:10:02.493Z,11.98
2019-03-27T10:12:33.940Z,12.06
2019-03-27T10:15:11.661Z,11.96
2019-03-27T10:17:43.053Z,11.71
2019-03-27T10:20:14.438Z,11.88
2019-03-27T10:22:45.728Z,12.15
2019-03-27T10:25:17.125Z,12.26
2019-03-27T10:27:48.432Z,12.25
2019-03-27T10:30:19.824Z,12.48
2019-03-27T10:32:51.142Z,12.58
2019-03-27T10:35:22.464Z,12.74
2019-03-27T10:37:53.854Z,12.99
2019-03-27T10:40:25.169Z,13.30
2019-03-27T10:42:56.551Z,13.14
2019-03-27T10:45:27.814Z,12.70
2019-03-27T10:47:59.130Z,12.43
2019-03-27T10:50:30.377Z,12.20
2019-03-27T10:53:01.774Z,12.15
2019-03-27T10:55:34.566Z,12.21
2019-03-27T10:58:07.355Z,12.48
2019-03-27T11:00:40.401Z,13.02
2019-03-27T11:03:12.114Z,13.30
2019-03-27T11:05:43.540Z,13.52
2019-03-27T11:08:14.901Z,13.31
2019-03-27T11:10:46.340Z,13.09
2019-03-27T11:13:17.648Z,13.06
2019-03-27T11:15:48.962Z,13.37
2019-03-27T11:18:20.271Z,13.72
2019-03-27T11:20:51.579Z,13.97
2019-03-27T11:23:23.010Z,14.31
2019-03-27T11:25:55.851Z,14.34
2019-03-27T11:28:27.201Z,14.70
2019-03-27T11:30:58.437Z,14.77
2019-03-27T11:33:29.802Z,14.72
2019-03-27T11:36:01.111Z,14.68
2019-03-27T11:38:32.426Z,14.70
2019-03-27T11:41:03.897Z,14.27
2019-03-27T11:43:35.273Z,13.84
2019-03-27T11:46:06.717Z,13.66
2019-03-27T11:48:38.137Z,13.41
2019-03-27T11:51:09.380Z,13.37
2019-03-27T11:53:40.666Z,13.47
2019-03-27T11:56:11.936Z,13.72
2019-03-27T11:58:43.350Z,13.85
2019-03-27T12:01:14.652Z,13.84
2019-03-27T12:03:46.012Z,13.75
2019-03-27T12:06:17.312Z,13.61
2019-03-27T12:08:51.005Z,13.55
2019-03-27T12:11:23.566Z,13.44
2019-03-27T12:13:54.940Z,13.24
2019-03-27T12:16:26.180Z,13.33
2019-03-27T12:18:57.464Z,13.31
2019-03-27T12:21:28.746Z,13.34
2019-03-27T12:24:00.040Z,13.47
2019-03-27T12:26:31.344Z,13.44
2019-03-27T12:29:02.655Z,13.63
2019-03-27T12:31:33.887Z,13.87
2019-03-27T12:34:05.238Z,14.01
2019-03-27T12:36:36.613Z,14.37
2019-03-27T12:39:08.610Z,14.53
2019-03-27T12:41:39.914Z,14.53
2019-03-27T12:44:11.353Z,14.45
2019-03-27T12:46:42.618Z,14.16
2019-03-27T12:49:14.041Z,14.01
2019-03-27T12:51:45.349Z,13.78
2019-03-27T12:54:16.724Z,14.03
2019-03-27T12:56:48.114Z,14.24
2019-03-27T12:59:19.428Z,14.64
2019-03-27T13:01:50.730Z,15.53
2019-03-27T13:04:22.086Z,15.95
2019-03-27T13:06:53.386Z,15.82
2019-03-27T13:09:25.737Z,15.55
2019-03-27T13:11:56.962Z,15.13
2019-03-27T13:14:28.279Z,15.09
2019-03-27T13:16:59.581Z,14.98
2019-03-27T13:19:30.875Z,14.93
2019-03-27T13:22:02.121Z,14.83
2019-03-27T13:24:33.398Z,14.54
2019-03-27T13:27:05.569Z,14.56
2019-03-27T13:29:36.935Z,14.49
2019-03-27T13:32:08.242Z,14.58
2019-03-27T13:34:40.603Z,14.71
2019-03-27T13:37:11.840Z,14.77
2019-03-27T13:39:43.134Z,14.99
2019-03-27T13:42:14.362Z,15.04
2019-03-27T13:44:45.672Z,14.93
2019-03-27T13:47:17.356Z,15.12
2019-03-27T13:49:48.780Z,15.38
2019-03-27T13:52:20.173Z,15.65
2019-03-27T13:54:51.531Z,15.36
2019-03-27T13:57:22.832Z,15.13
2019-03-27T13:59:54.274Z,14.68
2019-03-27T14:02:25.611Z,14.39
2019-03-27T14:04:57.523Z,14.47
2019-03-27T14:07:28.754Z,14.52
2019-03-27T14:10:08.013Z,14.45
2019-03-27T14:12:39.740Z,14.23
2019-03-27T14:15:14.019Z,14.43
2019-03-27T14:17:45.252Z,14.15
2019-03-27T14:20:17.095Z,14.03
2019-03-27T14:22:48.438Z,14.34
2019-03-27T14:25:22.132Z,14.55
2019-03-27T14:27:56.432Z,14.48
2019-03-27T14:30:49.067Z,14.48
2019-03-27T14:33:21.113Z,14.44
2019-03-27T14:35:52.608Z,14.48
2019-03-27T14:38:24.699Z,14.97
2019-03-27T14:40:56.003Z,15.55
2019-03-27T14:43:27.425Z,15.95
2019-03-27T14:46:00.216Z,16.31
2019-03-27T14:48:31.603Z,16.07
2019-03-27T14:51:04.065Z,16.21
2019-03-27T14:53:35.436Z,16.35
2019-03-27T14:56:06.865Z,16.13
2019-03-27T14:58:38.122Z,16.22
2019-03-27T15:01:09.591Z,16.18
2019-03-27T15:03:42.550Z,16.04
2019-03-27T15:06:13.808Z,15.78
2019-03-27T15:08:45.072Z,15.94
2019-03-27T15:11:17.378Z,15.80
2019-03-27T15:13:48.627Z,16.04
2019-03-27T15:16:19.996Z,16.20
2019-03-27T15:18:52.714Z,16.52
2019-03-27T15:21:24.302Z,16.25
2019-03-27T15:23:55.639Z,16.18
2019-03-27T15:26:26.929Z,15.48
2019-03-27T15:28:58.286Z,15.28
2019-03-27T15:31:29.792Z,15.50
2019-03-27T15:34:01.181Z,15.45
2019-03-27T15:36:32.487Z,15.88
2019-03-27T15:39:05.741Z,15.69
2019-03-27T15:41:37.097Z,15.72
2019-03-27T15:44:08.476Z,15.90
2019-03-27T15:46:41.387Z,15.43
2019-03-27T15:49:12.700Z,15.59
2019-03-27T15:51:44.064Z,15.56
2019-03-27T15:54:16.210Z,15.49
2019-03-27T15:56:47.665Z,15.96
2019-03-27T15:59:18.900Z,16.08
2019-03-27T16:01:50.290Z,16.14
2019-03-27T16:04:21.512Z,15.54
2019-03-27T16:06:52.842Z,15.51
2019-03-27T16:09:24.182Z,15.31
2019-03-27T16:11:56.406Z,15.52
2019-03-27T16:14:27.780Z,15.12
2019-03-27T16:17:12.775Z,14.78
2019-03-27T16:19:32.349Z,14.88
2019-03-27T16:22:03.869Z,14.62
2019-03-27T16:24:35.365Z,14.57
2019-03-27T16:27:06.728Z,14.58
2019-03-27T16:29:40.882Z,14.60
2019-03-27T16:32:12.374Z,14.86
2019-03-27T16:34:43.678Z,15.01
2019-03-27T16:37:15.632Z,14.91
2019-03-27T16:39:46.858Z,15.03
2019-03-27T16:42:18.212Z,14.85
2019-03-27T16:44:50.587Z,14.57
2019-03-27T16:47:22.091Z,14.58
2019-03-27T16:49:53.427Z,14.22
2019-03-27T16:52:24.889Z,13.77
2019-03-27T16:54:56.158Z,13.64
2019-03-27T16:57:27.571Z,13.43
2019-03-27T16:59:59.057Z,13.40
2019-03-27T17:02:30.488Z,13.25
2019-03-27T17:05:01.793Z,13.17
2019-03-27T17:07:33.244Z,13.01
2019-03-27T17:10:05.889Z,13.01
2019-03-27T17:12:52.915Z,13.04
2019-03-27T17:15:24.259Z,12.91
2019-03-27T17:17:55.805Z,12.71
2019-03-27T17:20:27.110Z,12.49
2019-03-27T17:22:58.484Z,12.47
2019-03-27T17:25:29.833Z,12.28
2019-03-27T17:28:01.146Z,12.13
2019-03-27T17:30:32.465Z,12.06
2019-03-27T17:33:03.892Z,11.95
2019-03-27T17:35:35.252Z,11.78
2019-03-27T17:38:10.821Z,11.62
2019-03-27T17:40:40.626Z,11.50
2019-03-27T17:43:12.022Z,11.54
2019-03-27T17:45:44.302Z,11.47
2019-03-27T17:48:17.372Z,11.36
2019-03-27T17:50:48.723Z,11.22
2019-03-27T17:53:30.974Z,11.05
2019-03-27T17:55:59.143Z,10.97
2019-03-27T17:58:30.503Z,10.85
2019-03-27T18:01:03.384Z,10.83
2019-03-27T18:03:34.864Z,10.72
2019-03-27T18:06:06.289Z,10.71
2019-03-27T18:08:37.760Z,10.68
2019-03-27T18:11:09.143Z,10.60
2019-03-27T18:13:41.659Z,10.55
2019-03-27T18:16:13.028Z,10.33
2019-03-27T18:18:44.465Z,10.17
2019-03-27T18:21:15.708Z,10.08
2019-03-27T18:23:47.310Z,10.02
2019-03-27T18:26:18.752Z,9.93
2019-03-27T18:28:50.093Z,9.81
2019-03-27T18:31:21.426Z,9.75
2019-03-27T18:34:02.717Z,9.69
2019-03-27T18:36:34.006Z,9.65
2019-03-27T18:39:08.603Z,9.59
2019-03-27T18:41:39.934Z,9.52
2019-03-27T18:44:11.235Z,9.45
2019-03-27T18:46:42.673Z,9.38
2019-03-27T18:49:14.200Z,9.30
2019-03-27T18:51:45.441Z,9.19
2019-03-27T18:54:16.867Z,9.08
2019-03-27T18:56:48.173Z,8.92
2019-03-27T18:59:19.449Z,8.83
2019-03-27T19:01:50.746Z,8.76
2019-03-27T19:04:22.770Z,8.74
2019-03-27T19:06:54.123Z,8.71
2019-03-27T19:09:25.587Z,8.70
2019-03-27T19:11:57.242Z,8.71
2019-03-27T19:14:29.226Z,8.66
2019-03-27T19:17:01.525Z,8.62
2019-03-27T19:19:32.901Z,8.60
2019-03-27T19:22:05.645Z,8.53
2019-03-27T19:24:37.048Z,8.51
2019-03-27T19:27:08.582Z,8.46
2019-03-27T19:29:44.783Z,8.40
2019-03-27T19:32:14.923Z,8.29
2019-03-27T19:34:46.443Z,8.27
2019-03-27T19:37:17.725Z,8.25
2019-03-27T19:39:50.134Z,8.24
2019-03-27T19:42:21.487Z,8.21
2019-03-27T19:44:52.883Z,8.17
2019-03-27T19:47:24.109Z,8.10
2019-03-27T19:49:55.470Z,8.02
2019-03-27T19:52:26.867Z,7.98
2019-03-27T19:54:58.705Z,7.93
2019-03-27T19:57:30.046Z,7.86
2019-03-27T20:00:01.705Z,7.84
2019-03-27T20:02:33.585Z,7.83
2019-03-27T20:05:06.493Z,7.78
2019-03-27T20:07:38.793Z,7.72
2019-03-27T20:10:11.803Z,7.75
2019-03-27T20:12:43.114Z,7.74
2019-03-27T20:15:15.609Z,7.72
2019-03-27T20:17:47.046Z,7.63
2019-03-27T20:20:18.492Z,7.53
2019-03-27T20:22:49.956Z,7.48
2019-03-27T20:25:21.425Z,7.47
2019-03-27T20:27:52.785Z,7.44
2019-03-27T20:30:26.897Z,7.39
2019-03-27T20:32:57.568Z,7.34
2019-03-27T20:35:29.024Z,7.27
2019-03-27T20:38:00.394Z,7.21
2019-03-27T20:40:31.848Z,7.23
2019-03-27T20:43:03.075Z,7.20
2019-03-27T20:45:34.465Z,7.17
2019-03-27T20:48:05.766Z,7.13
2019-03-27T20:50:38.338Z,7.11
2019-03-27T20:53:10.179Z,7.10
2019-03-27T20:55:41.804Z,7.05
2019-03-27T20:58:13.129Z,7.00
2019-03-27T21:00:44.528Z,6.97
2019-03-27T21:03:16.226Z,6.96
2019-03-27T21:05:47.974Z,6.96
2019-03-27T21:08:19.280Z,6.91
2019-03-27T21:10:50.698Z,6.85
2019-03-27T21:13:22.011Z,6.81
2019-03-27T21:15:53.366Z,6.76
2019-03-27T21:18:24.679Z,6.69
2019-03-27T21:20:55.977Z,6.62
2019-03-27T21:23:27.625Z,6.46
2019-03-27T21:25:59.012Z,6.38
2019-03-27T21:28:30.263Z,6.30
2019-03-27T21:31:01.626Z,6.30
2019-03-27T21:33:32.957Z,6.25
2019-03-27T21:36:04.315Z,6.20
2019-03-27T21:38:35.753Z,6.16
2019-03-27T21:41:07.052Z,6.06
2019-03-27T21:43:38.408Z,5.99
2019-03-27T21:46:09.831Z,5.91
2019-03-27T21:48:41.063Z,5.87
2019-03-27T21:51:12.437Z,5.89
2019-03-27T21:53:44.374Z,5.90
2019-03-27T21:56:16.818Z,5.98
2019-03-27T21:58:48.056Z,6.07
2019-03-27T22:01:19.580Z,5.99
2019-03-27T22:03:51.029Z,5.80
2019-03-27T22:06:22.347Z,5.71
2019-03-27T22:08:53.667Z,5.65
2019-03-27T22:11:25.084Z,5.63
2019-03-27T22:13:56.524Z,5.56
2019-03-27T22:16:27.890Z,5.51
2019-03-27T22:18:59.256Z,5.46
2019-03-27T22:21:31.139Z,5.43
2019-03-27T22:24:03.510Z,5.38
2019-03-27T22:26:34.788Z,5.37
2019-03-27T22:29:06.089Z,5.32
2019-03-27T22:31:38.315Z,5.31
2019-03-27T22:34:09.668Z,5.35
2019-03-27T22:36:42.559Z,5.36
2019-03-27T22:39:14.809Z,5.39
2019-03-27T22:41:46.162Z,5.34
2019-03-27T22:44:17.392Z,5.33
2019-03-27T22:46:48.748Z,5.18
2019-03-27T22:49:20.115Z,5.05
2019-03-27T22:51:51.405Z,5.03
2019-03-27T22:54:22.812Z,4.99
2019-03-27T22:56:54.092Z,4.95
2019-03-27T22:59:25.325Z,4.98
2019-03-27T23:01:56.682Z,4.99
2019-03-27T23:04:27.984Z,5.02
2019-03-27T23:06:59.427Z,5.03
2019-03-27T23:09:31.778Z,5.04
2019-03-27T23:12:03.153Z,5.04
2019-03-27T23:14:34.459Z,5.01
2019-03-27T23:17:05.927Z,5.03
2019-03-27T23:19:37.158Z,5.07
2019-03-27T23:22:08.575Z,5.09
2019-03-27T23:24:39.894Z,5.13
2019-03-27T23:27:11.315Z,5.13
2019-03-27T23:29:42.625Z,5.12
2019-03-27T23:32:14.216Z,5.14
2019-03-27T23:34:49.304Z,5.12
2019-03-27T23:37:20.669Z,5.05
2019-03-27T23:39:52.019Z,5.01
2019-03-27T23:42:23.470Z,5.00
2019-03-27T23:44:54.697Z,4.92
2019-03-27T23:47:26.057Z,4.87
2019-03-27T23:49:57.427Z,4.79
2019-03-27T23:52:28.721Z,4.81
2019-03-27T23:55:00.125Z,4.83
2019-03-27T23:57:31.531Z,4.86
